sensor_id;sensor_type;location;lat;lon;timestamp;P1;durP1;ratioP1;P2;durP2;ratioP2
76290;SDS011;65100;46.884;17.410;2023-06-14T00:01:01;8.32;;;4.57;;
76290;SDS011;65100;46.884;17.410;2023-06-14T00:03:28;9.13;;;4.27;;
76290;SDS011;65100;46.884;17.410;2023-06-14T00:05:54;8.18;;;4.35;;
76290;SDS011;65100;46.884;17.410;2023-06-14T00:08:20;8.55;;;4.45;;
76290;SDS011;65100;46.884;17.410;2023-06-14T00:10:47;8.70;;;4.50;;
76290;SDS011;65100;46.884;17.410;2023-06-14T00:13:13;7.88;;;4.32;;
76290;SDS011;65100;46.884;17.410;2023-06-14T00:15:39;9.68;;;4.53;;
76290;SDS011;65100;46.884;17.410;2023-06-14T00:18:05;9.30;;;4.50;;
76290;SDS011;65100;46.884;17.410;2023-06-14T00:20:31;8.85;;;4.43;;
76290;SDS011;65100;46.884;17.410;2023-06-14T00:23:01;9.70;;;3.90;;
76290;SDS011;65100;46.884;17.410;2023-06-14T00:25:27;7.93;;;3.88;;
76290;SDS011;65100;46.884;17.410;2023-06-14T00:27:53;9.57;;;4.50;;
76290;SDS011;65100;46.884;17.410;2023-06-14T00:30:19;8.30;;;4.45;;
76290;SDS011;65100;46.884;17.410;2023-06-14T00:32:45;9.10;;;4.30;;
76290;SDS011;65100;46.884;17.410;2023-06-14T00:35:11;8.85;;;4.32;;
76290;SDS011;65100;46.884;17.410;2023-06-14T00:37:36;9.02;;;4.18;;
76290;SDS011;65100;46.884;17.410;2023-06-14T00:40:02;7.67;;;4.10;;
76290;SDS011;65100;46.884;17.410;2023-06-14T00:42:29;8.82;;;4.55;;
76290;SDS011;65100;46.884;17.410;2023-06-14T00:44:55;8.73;;;4.30;;
76290;SDS011;65100;46.884;17.410;2023-06-14T00:47:21;7.40;;;4.13;;
76290;SDS011;65100;46.884;17.410;2023-06-14T00:49:47;7.63;;;4.30;;
76290;SDS011;65100;46.884;17.410;2023-06-14T00:52:16;9.05;;;4.93;;
76290;SDS011;65100;46.884;17.410;2023-06-14T00:54:42;8.47;;;4.57;;
76290;SDS011;65100;46.884;17.410;2023-06-14T00:57:08;8.35;;;4.30;;
76290;SDS011;65100;46.884;17.410;2023-06-14T00:59:38;9.63;;;4.80;;
76290;SDS011;65100;46.884;17.410;2023-06-14T01:02:08;9.63;;;4.55;;
76290;SDS011;65100;46.884;17.410;2023-06-14T01:04:34;9.10;;;4.50;;
76290;SDS011;65100;46.884;17.410;2023-06-14T01:10:19;8.95;;;4.70;;
76290;SDS011;65100;46.884;17.410;2023-06-14T01:12:39;8.10;;;4.22;;
76290;SDS011;65100;46.884;17.410;2023-06-14T01:15:29;8.60;;;4.40;;
76290;SDS011;65100;46.884;17.410;2023-06-14T01:17:56;9.70;;;4.75;;
76290;SDS011;65100;46.884;17.410;2023-06-14T01:20:28;8.40;;;4.30;;
76290;SDS011;65100;46.884;17.410;2023-06-14T01:22:56;11.02;;;4.40;;
76290;SDS011;65100;46.884;17.410;2023-06-14T01:25:22;8.70;;;4.50;;
76290;SDS011;65100;46.884;17.410;2023-06-14T01:27:48;7.70;;;4.38;;
76290;SDS011;65100;46.884;17.410;2023-06-14T01:30:16;9.43;;;4.70;;
76290;SDS011;65100;46.884;17.410;2023-06-14T01:32:42;8.85;;;4.68;;
76290;SDS011;65100;46.884;17.410;2023-06-14T01:35:08;8.63;;;4.63;;
76290;SDS011;65100;46.884;17.410;2023-06-14T01:37:34;9.37;;;4.30;;
76290;SDS011;65100;46.884;17.410;2023-06-14T01:40:03;8.60;;;4.60;;
76290;SDS011;65100;46.884;17.410;2023-06-14T01:42:31;8.57;;;4.60;;
76290;SDS011;65100;46.884;17.410;2023-06-14T01:44:59;10.10;;;4.60;;
76290;SDS011;65100;46.884;17.410;2023-06-14T01:47:26;9.25;;;4.60;;
76290;SDS011;65100;46.884;17.410;2023-06-14T01:49:52;9.88;;;4.60;;
76290;SDS011;65100;46.884;17.410;2023-06-14T01:52:17;9.30;;;4.63;;
76290;SDS011;65100;46.884;17.410;2023-06-14T01:54:44;9.75;;;4.63;;
76290;SDS011;65100;46.884;17.410;2023-06-14T01:57:11;9.93;;;4.60;;
76290;SDS011;65100;46.884;17.410;2023-06-14T01:59:37;10.90;;;4.43;;
76290;SDS011;65100;46.884;17.410;2023-06-14T02:02:02;9.57;;;4.65;;
76290;SDS011;65100;46.884;17.410;2023-06-14T02:04:28;8.57;;;4.53;;
76290;SDS011;65100;46.884;17.410;2023-06-14T02:06:54;10.60;;;4.50;;
76290;SDS011;65100;46.884;17.410;2023-06-14T02:09:19;8.30;;;4.40;;
76290;SDS011;65100;46.884;17.410;2023-06-14T02:11:45;9.88;;;4.47;;
76290;SDS011;65100;46.884;17.410;2023-06-14T02:14:10;9.70;;;4.40;;
76290;SDS011;65100;46.884;17.410;2023-06-14T02:16:36;9.93;;;4.82;;
76290;SDS011;65100;46.884;17.410;2023-06-14T02:19:04;10.57;;;4.75;;
76290;SDS011;65100;46.884;17.410;2023-06-14T02:21:32;8.87;;;4.43;;
76290;SDS011;65100;46.884;17.410;2023-06-14T02:23:57;8.27;;;4.60;;
76290;SDS011;65100;46.884;17.410;2023-06-14T02:26:23;8.27;;;4.70;;
76290;SDS011;65100;46.884;17.410;2023-06-14T02:28:49;10.80;;;4.43;;
76290;SDS011;65100;46.884;17.410;2023-06-14T02:31:14;8.90;;;4.40;;
76290;SDS011;65100;46.884;17.410;2023-06-14T02:33:41;9.27;;;4.60;;
76290;SDS011;65100;46.884;17.410;2023-06-14T02:36:06;10.00;;;4.90;;
76290;SDS011;65100;46.884;17.410;2023-06-14T02:38:32;9.07;;;4.57;;
76290;SDS011;65100;46.884;17.410;2023-06-14T02:40:57;10.53;;;4.87;;
76290;SDS011;65100;46.884;17.410;2023-06-14T02:43:24;9.30;;;4.30;;
76290;SDS011;65100;46.884;17.410;2023-06-14T02:45:49;10.93;;;4.60;;
76290;SDS011;65100;46.884;17.410;2023-06-14T02:48:15;12.50;;;5.00;;
76290;SDS011;65100;46.884;17.410;2023-06-14T02:50:41;9.77;;;4.60;;
76290;SDS011;65100;46.884;17.410;2023-06-14T02:53:06;10.07;;;4.70;;
76290;SDS011;65100;46.884;17.410;2023-06-14T02:55:32;7.93;;;4.60;;
76290;SDS011;65100;46.884;17.410;2023-06-14T02:57:57;8.30;;;4.70;;
76290;SDS011;65100;46.884;17.410;2023-06-14T03:00:23;10.93;;;5.00;;
76290;SDS011;65100;46.884;17.410;2023-06-14T03:02:49;9.95;;;4.65;;
76290;SDS011;65100;46.884;17.410;2023-06-14T03:05:16;8.93;;;4.60;;
76290;SDS011;65100;46.884;17.410;2023-06-14T03:07:46;9.52;;;4.80;;
76290;SDS011;65100;46.884;17.410;2023-06-14T03:10:12;9.10;;;4.70;;
76290;SDS011;65100;46.884;17.410;2023-06-14T03:12:38;9.98;;;4.80;;
76290;SDS011;65100;46.884;17.410;2023-06-14T03:15:04;9.33;;;4.80;;
76290;SDS011;65100;46.884;17.410;2023-06-14T03:17:30;10.25;;;4.63;;
76290;SDS011;65100;46.884;17.410;2023-06-14T03:19:59;8.93;;;5.00;;
76290;SDS011;65100;46.884;17.410;2023-06-14T03:22:25;9.90;;;5.10;;
76290;SDS011;65100;46.884;17.410;2023-06-14T03:24:51;9.27;;;4.87;;
76290;SDS011;65100;46.884;17.410;2023-06-14T03:27:17;9.85;;;4.70;;
76290;SDS011;65100;46.884;17.410;2023-06-14T03:29:43;11.00;;;5.13;;
76290;SDS011;65100;46.884;17.410;2023-06-14T03:32:09;9.90;;;4.93;;
76290;SDS011;65100;46.884;17.410;2023-06-14T03:34:35;9.70;;;4.40;;
76290;SDS011;65100;46.884;17.410;2023-06-14T03:37:00;11.73;;;5.10;;
76290;SDS011;65100;46.884;17.410;2023-06-14T03:39:26;8.50;;;4.82;;
76290;SDS011;65100;46.884;17.410;2023-06-14T03:41:51;8.33;;;4.70;;
76290;SDS011;65100;46.884;17.410;2023-06-14T03:44:17;10.13;;;4.53;;
76290;SDS011;65100;46.884;17.410;2023-06-14T03:46:44;9.00;;;4.60;;
76290;SDS011;65100;46.884;17.410;2023-06-14T03:49:10;9.57;;;4.40;;
76290;SDS011;65100;46.884;17.410;2023-06-14T03:51:36;10.18;;;4.75;;
76290;SDS011;65100;46.884;17.410;2023-06-14T03:54:02;13.23;;;5.60;;
76290;SDS011;65100;46.884;17.410;2023-06-14T03:56:27;8.52;;;4.90;;
76290;SDS011;65100;46.884;17.410;2023-06-14T03:58:53;8.27;;;4.57;;
76290;SDS011;65100;46.884;17.410;2023-06-14T04:01:18;8.00;;;4.40;;
76290;SDS011;65100;46.884;17.410;2023-06-14T04:03:44;9.00;;;4.77;;
76290;SDS011;65100;46.884;17.410;2023-06-14T04:06:09;8.93;;;5.10;;
76290;SDS011;65100;46.884;17.410;2023-06-14T04:08:34;9.57;;;4.60;;
76290;SDS011;65100;46.884;17.410;2023-06-14T04:11:00;8.83;;;4.70;;
76290;SDS011;65100;46.884;17.410;2023-06-14T04:13:26;8.77;;;4.93;;
76290;SDS011;65100;46.884;17.410;2023-06-14T04:15:52;9.17;;;5.10;;
76290;SDS011;65100;46.884;17.410;2023-06-14T04:18:18;9.13;;;5.10;;
76290;SDS011;65100;46.884;17.410;2023-06-14T04:20:44;10.55;;;5.07;;
76290;SDS011;65100;46.884;17.410;2023-06-14T04:23:14;10.83;;;5.30;;
76290;SDS011;65100;46.884;17.410;2023-06-14T04:25:40;9.87;;;5.40;;
76290;SDS011;65100;46.884;17.410;2023-06-14T04:28:09;10.05;;;5.32;;
76290;SDS011;65100;46.884;17.410;2023-06-14T04:30:36;8.70;;;5.13;;
76290;SDS011;65100;46.884;17.410;2023-06-14T04:33:04;13.20;;;5.50;;
76290;SDS011;65100;46.884;17.410;2023-06-14T04:35:31;9.80;;;5.32;;
76290;SDS011;65100;46.884;17.410;2023-06-14T04:37:57;9.20;;;5.27;;
76290;SDS011;65100;46.884;17.410;2023-06-14T04:40:23;17.63;;;6.50;;
76290;SDS011;65100;46.884;17.410;2023-06-14T04:42:49;36.47;;;6.95;;
76290;SDS011;65100;46.884;17.410;2023-06-14T04:45:16;20.97;;;6.50;;
76290;SDS011;65100;46.884;17.410;2023-06-14T04:47:42;16.30;;;6.25;;
76290;SDS011;65100;46.884;17.410;2023-06-14T04:50:09;14.45;;;6.28;;
76290;SDS011;65100;46.884;17.410;2023-06-14T04:52:36;16.55;;;7.35;;
76290;SDS011;65100;46.884;17.410;2023-06-14T04:55:02;37.30;;;9.05;;
76290;SDS011;65100;46.884;17.410;2023-06-14T04:57:28;33.13;;;8.17;;
76290;SDS011;65100;46.884;17.410;2023-06-14T04:59:54;31.55;;;7.75;;
76290;SDS011;65100;46.884;17.410;2023-06-14T05:02:23;13.88;;;6.47;;
76290;SDS011;65100;46.884;17.410;2023-06-14T05:04:49;11.73;;;6.35;;
76290;SDS011;65100;46.884;17.410;2023-06-14T05:07:15;12.77;;;6.10;;
76290;SDS011;65100;46.884;17.410;2023-06-14T05:09:41;11.55;;;6.10;;
76290;SDS011;65100;46.884;17.410;2023-06-14T05:12:06;13.40;;;5.90;;
76290;SDS011;65100;46.884;17.410;2023-06-14T05:14:36;15.30;;;6.80;;
76290;SDS011;65100;46.884;17.410;2023-06-14T05:17:01;29.90;;;7.85;;
76290;SDS011;65100;46.884;17.410;2023-06-14T05:19:30;17.07;;;6.30;;
76290;SDS011;65100;46.884;17.410;2023-06-14T05:21:56;21.20;;;6.63;;
76290;SDS011;65100;46.884;17.410;2023-06-14T05:24:22;16.47;;;5.97;;
76290;SDS011;65100;46.884;17.410;2023-06-14T05:26:47;13.13;;;5.80;;
76290;SDS011;65100;46.884;17.410;2023-06-14T05:29:13;12.70;;;5.97;;
76290;SDS011;65100;46.884;17.410;2023-06-14T05:31:39;12.32;;;5.93;;
76290;SDS011;65100;46.884;17.410;2023-06-14T05:34:04;10.03;;;5.10;;
76290;SDS011;65100;46.884;17.410;2023-06-14T05:36:30;9.70;;;5.03;;
76290;SDS011;65100;46.884;17.410;2023-06-14T05:38:55;10.00;;;5.30;;
76290;SDS011;65100;46.884;17.410;2023-06-14T05:41:28;9.33;;;5.03;;
76290;SDS011;65100;46.884;17.410;2023-06-14T05:43:54;9.27;;;4.90;;
76290;SDS011;65100;46.884;17.410;2023-06-14T05:46:20;8.73;;;5.03;;
76290;SDS011;65100;46.884;17.410;2023-06-14T05:48:49;9.65;;;5.10;;
76290;SDS011;65100;46.884;17.410;2023-06-14T05:51:15;10.33;;;5.07;;
76290;SDS011;65100;46.884;17.410;2023-06-14T05:56:50;10.73;;;5.38;;
76290;SDS011;65100;46.884;17.410;2023-06-14T05:59:15;10.10;;;5.10;;
76290;SDS011;65100;46.884;17.410;2023-06-14T06:01:41;11.90;;;5.10;;
76290;SDS011;65100;46.884;17.410;2023-06-14T06:04:07;10.10;;;4.97;;
76290;SDS011;65100;46.884;17.410;2023-06-14T06:06:32;9.82;;;4.95;;
76290;SDS011;65100;46.884;17.410;2023-06-14T06:08:58;9.37;;;4.80;;
76290;SDS011;65100;46.884;17.410;2023-06-14T06:11:23;11.53;;;5.47;;
76290;SDS011;65100;46.884;17.410;2023-06-14T06:13:49;18.90;;;6.60;;
76290;SDS011;65100;46.884;17.410;2023-06-14T06:16:14;12.03;;;5.57;;
76290;SDS011;65100;46.884;17.410;2023-06-14T06:18:40;9.37;;;5.23;;
76290;SDS011;65100;46.884;17.410;2023-06-14T06:21:05;9.17;;;5.23;;
76290;SDS011;65100;46.884;17.410;2023-06-14T06:23:31;11.80;;;5.83;;
76290;SDS011;65100;46.884;17.410;2023-06-14T06:25:57;11.75;;;5.97;;
76290;SDS011;65100;46.884;17.410;2023-06-14T06:28:22;10.03;;;5.90;;
76290;SDS011;65100;46.884;17.410;2023-06-14T06:30:48;12.20;;;6.10;;
76290;SDS011;65100;46.884;17.410;2023-06-14T06:33:13;9.83;;;5.67;;
76290;SDS011;65100;46.884;17.410;2023-06-14T06:35:39;10.30;;;5.90;;
76290;SDS011;65100;46.884;17.410;2023-06-14T06:38:05;10.15;;;5.80;;
76290;SDS011;65100;46.884;17.410;2023-06-14T06:40:30;10.93;;;5.33;;
76290;SDS011;65100;46.884;17.410;2023-06-14T06:42:56;11.03;;;5.33;;
76290;SDS011;65100;46.884;17.410;2023-06-14T06:45:21;9.33;;;4.93;;
76290;SDS011;65100;46.884;17.410;2023-06-14T06:47:48;8.80;;;4.93;;
76290;SDS011;65100;46.884;17.410;2023-06-14T06:50:14;10.20;;;5.45;;
76290;SDS011;65100;46.884;17.410;2023-06-14T06:52:39;10.33;;;5.20;;
76290;SDS011;65100;46.884;17.410;2023-06-14T06:55:05;10.03;;;5.27;;
76290;SDS011;65100;46.884;17.410;2023-06-14T06:57:31;9.07;;;5.68;;
76290;SDS011;65100;46.884;17.410;2023-06-14T06:59:57;8.85;;;5.25;;
76290;SDS011;65100;46.884;17.410;2023-06-14T07:02:22;9.73;;;5.80;;
76290;SDS011;65100;46.884;17.410;2023-06-14T07:04:48;10.18;;;5.40;;
76290;SDS011;65100;46.884;17.410;2023-06-14T07:07:13;9.53;;;5.30;;
76290;SDS011;65100;46.884;17.410;2023-06-14T07:09:39;9.50;;;5.50;;
76290;SDS011;65100;46.884;17.410;2023-06-14T07:12:06;10.23;;;6.22;;
76290;SDS011;65100;46.884;17.410;2023-06-14T07:14:32;10.15;;;6.05;;
76290;SDS011;65100;46.884;17.410;2023-06-14T07:16:58;10.93;;;5.87;;
76290;SDS011;65100;46.884;17.410;2023-06-14T07:19:23;12.40;;;6.60;;
76290;SDS011;65100;46.884;17.410;2023-06-14T07:21:49;14.63;;;6.13;;
76290;SDS011;65100;46.884;17.410;2023-06-14T07:24:15;15.20;;;5.60;;
76290;SDS011;65100;46.884;17.410;2023-06-14T07:26:40;10.18;;;5.35;;
76290;SDS011;65100;46.884;17.410;2023-06-14T07:29:06;10.53;;;5.10;;
76290;SDS011;65100;46.884;17.410;2023-06-14T07:31:31;9.73;;;5.40;;
76290;SDS011;65100;46.884;17.410;2023-06-14T07:33:57;12.20;;;5.65;;
76290;SDS011;65100;46.884;17.410;2023-06-14T07:36:22;12.17;;;5.77;;
76290;SDS011;65100;46.884;17.410;2023-06-14T07:38:48;16.33;;;5.20;;
76290;SDS011;65100;46.884;17.410;2023-06-14T07:41:13;9.75;;;5.72;;
76290;SDS011;65100;46.884;17.410;2023-06-14T07:43:39;13.80;;;8.90;;
76290;SDS011;65100;46.884;17.410;2023-06-14T07:46:04;10.60;;;5.47;;
76290;SDS011;65100;46.884;17.410;2023-06-14T07:48:30;9.60;;;4.80;;
76290;SDS011;65100;46.884;17.410;2023-06-14T07:50:56;10.70;;;4.87;;
76290;SDS011;65100;46.884;17.410;2023-06-14T07:53:21;10.77;;;5.73;;
76290;SDS011;65100;46.884;17.410;2023-06-14T07:55:47;11.07;;;5.47;;
76290;SDS011;65100;46.884;17.410;2023-06-14T07:58:13;10.75;;;5.05;;
76290;SDS011;65100;46.884;17.410;2023-06-14T08:00:39;10.00;;;4.63;;
76290;SDS011;65100;46.884;17.410;2023-06-14T08:03:04;9.32;;;5.07;;
76290;SDS011;65100;46.884;17.410;2023-06-14T08:05:30;8.57;;;5.00;;
76290;SDS011;65100;46.884;17.410;2023-06-14T08:07:55;8.70;;;5.10;;
76290;SDS011;65100;46.884;17.410;2023-06-14T08:10:21;8.25;;;4.78;;
76290;SDS011;65100;46.884;17.410;2023-06-14T08:12:48;10.50;;;5.20;;
76290;SDS011;65100;46.884;17.410;2023-06-14T08:15:15;11.50;;;4.70;;
76290;SDS011;65100;46.884;17.410;2023-06-14T08:17:42;9.43;;;5.03;;
76290;SDS011;65100;46.884;17.410;2023-06-14T08:20:09;11.80;;;5.70;;
76290;SDS011;65100;46.884;17.410;2023-06-14T08:22:35;10.07;;;6.00;;
76290;SDS011;65100;46.884;17.410;2023-06-14T08:25:01;8.82;;;5.40;;
76290;SDS011;65100;46.884;17.410;2023-06-14T08:27:27;8.63;;;5.20;;
76290;SDS011;65100;46.884;17.410;2023-06-14T08:29:52;11.55;;;5.95;;
76290;SDS011;65100;46.884;17.410;2023-06-14T08:32:18;11.40;;;7.67;;
76290;SDS011;65100;46.884;17.410;2023-06-14T08:34:43;11.10;;;6.75;;
76290;SDS011;65100;46.884;17.410;2023-06-14T08:37:09;10.30;;;6.00;;
76290;SDS011;65100;46.884;17.410;2023-06-14T08:39:34;16.50;;;9.70;;
76290;SDS011;65100;46.884;17.410;2023-06-14T08:42:01;11.63;;;6.90;;
76290;SDS011;65100;46.884;17.410;2023-06-14T08:44:28;12.75;;;6.38;;
76290;SDS011;65100;46.884;17.410;2023-06-14T08:46:57;11.23;;;6.30;;
76290;SDS011;65100;46.884;17.410;2023-06-14T08:49:25;9.98;;;5.95;;
76290;SDS011;65100;46.884;17.410;2023-06-14T08:51:57;8.98;;;5.22;;
76290;SDS011;65100;46.884;17.410;2023-06-14T08:54:25;9.30;;;5.40;;
76290;SDS011;65100;46.884;17.410;2023-06-14T08:56:53;11.50;;;5.75;;
76290;SDS011;65100;46.884;17.410;2023-06-14T08:59:23;10.07;;;6.00;;
76290;SDS011;65100;46.884;17.410;2023-06-14T09:01:51;12.20;;;5.82;;
76290;SDS011;65100;46.884;17.410;2023-06-14T09:04:18;11.88;;;5.53;;
76290;SDS011;65100;46.884;17.410;2023-06-14T09:06:45;10.25;;;5.40;;
76290;SDS011;65100;46.884;17.410;2023-06-14T09:09:10;9.57;;;5.07;;
76290;SDS011;65100;46.884;17.410;2023-06-14T09:11:36;9.10;;;5.00;;
76290;SDS011;65100;46.884;17.410;2023-06-14T09:14:01;10.63;;;4.80;;
76290;SDS011;65100;46.884;17.410;2023-06-14T09:16:27;7.25;;;4.00;;
76290;SDS011;65100;46.884;17.410;2023-06-14T09:18:53;7.93;;;4.20;;
76290;SDS011;65100;46.884;17.410;2023-06-14T09:21:19;8.73;;;3.85;;
76290;SDS011;65100;46.884;17.410;2023-06-14T09:23:46;8.15;;;4.20;;
76290;SDS011;65100;46.884;17.410;2023-06-14T09:26:14;8.57;;;4.30;;
76290;SDS011;65100;46.884;17.410;2023-06-14T09:28:44;12.32;;;4.70;;
76290;SDS011;65100;46.884;17.410;2023-06-14T09:31:15;9.07;;;4.18;;
76290;SDS011;65100;46.884;17.410;2023-06-14T09:33:42;8.63;;;4.20;;
76290;SDS011;65100;46.884;17.410;2023-06-14T09:36:14;9.05;;;3.80;;
76290;SDS011;65100;46.884;17.410;2023-06-14T09:38:41;7.60;;;4.07;;
76290;SDS011;65100;46.884;17.410;2023-06-14T09:41:06;9.73;;;3.90;;
76290;SDS011;65100;46.884;17.410;2023-06-14T09:43:32;9.63;;;4.50;;
76290;SDS011;65100;46.884;17.410;2023-06-14T09:46:00;10.02;;;4.25;;
76290;SDS011;65100;46.884;17.410;2023-06-14T09:48:26;9.45;;;4.20;;
76290;SDS011;65100;46.884;17.410;2023-06-14T09:50:51;8.03;;;4.13;;
76290;SDS011;65100;46.884;17.410;2023-06-14T09:53:21;7.82;;;4.30;;
76290;SDS011;65100;46.884;17.410;2023-06-14T09:55:50;8.23;;;3.88;;
76290;SDS011;65100;46.884;17.410;2023-06-14T09:58:17;8.05;;;3.67;;
76290;SDS011;65100;46.884;17.410;2023-06-14T10:00:46;7.80;;;3.80;;
76290;SDS011;65100;46.884;17.410;2023-06-14T10:03:16;8.18;;;3.70;;
76290;SDS011;65100;46.884;17.410;2023-06-14T10:05:53;7.47;;;3.80;;
76290;SDS011;65100;46.884;17.410;2023-06-14T10:08:27;12.23;;;4.10;;
76290;SDS011;65100;46.884;17.410;2023-06-14T10:10:55;10.27;;;4.60;;
76290;SDS011;65100;46.884;17.410;2023-06-14T10:13:21;9.23;;;4.10;;
76290;SDS011;65100;46.884;17.410;2023-06-14T10:21:47;8.55;;;3.92;;
76290;SDS011;65100;46.884;17.410;2023-06-14T10:24:12;11.43;;;5.20;;
76290;SDS011;65100;46.884;17.410;2023-06-14T10:26:50;9.13;;;5.33;;
76290;SDS011;65100;46.884;17.410;2023-06-14T10:29:17;8.45;;;4.63;;
76290;SDS011;65100;46.884;17.410;2023-06-14T10:31:47;9.73;;;4.18;;
76290;SDS011;65100;46.884;17.410;2023-06-14T10:34:22;9.70;;;4.75;;
76290;SDS011;65100;46.884;17.410;2023-06-14T10:39:45;13.73;;;6.00;;
76290;SDS011;65100;46.884;17.410;2023-06-14T10:42:11;11.23;;;5.55;;
76290;SDS011;65100;46.884;17.410;2023-06-14T10:44:42;8.73;;;4.78;;
76290;SDS011;65100;46.884;17.410;2023-06-14T10:52:28;10.33;;;5.13;;
76290;SDS011;65100;46.884;17.410;2023-06-14T10:57:33;10.05;;;5.60;;
76290;SDS011;65100;46.884;17.410;2023-06-14T11:00:00;10.40;;;4.72;;
76290;SDS011;65100;46.884;17.410;2023-06-14T11:10:44;8.55;;;4.60;;
76290;SDS011;65100;46.884;17.410;2023-06-14T11:13:21;8.43;;;4.55;;
76290;SDS011;65100;46.884;17.410;2023-06-14T11:15:50;11.23;;;4.50;;
76290;SDS011;65100;46.884;17.410;2023-06-14T11:18:18;9.27;;;4.80;;
76290;SDS011;65100;46.884;17.410;2023-06-14T11:20:45;8.20;;;4.40;;
76290;SDS011;65100;46.884;17.410;2023-06-14T11:23:11;8.75;;;4.75;;
76290;SDS011;65100;46.884;17.410;2023-06-14T11:25:37;8.80;;;4.60;;
76290;SDS011;65100;46.884;17.410;2023-06-14T11:28:02;10.80;;;5.33;;
76290;SDS011;65100;46.884;17.410;2023-06-14T11:30:28;12.07;;;6.75;;
76290;SDS011;65100;46.884;17.410;2023-06-14T11:32:55;13.33;;;5.03;;
76290;SDS011;65100;46.884;17.410;2023-06-14T11:35:22;9.68;;;4.93;;
76290;SDS011;65100;46.884;17.410;2023-06-14T11:37:48;9.23;;;4.70;;
76290;SDS011;65100;46.884;17.410;2023-06-14T11:40:17;10.60;;;4.60;;
76290;SDS011;65100;46.884;17.410;2023-06-14T11:42:43;9.98;;;4.80;;
76290;SDS011;65100;46.884;17.410;2023-06-14T11:45:09;9.77;;;4.80;;
76290;SDS011;65100;46.884;17.410;2023-06-14T11:47:37;10.27;;;4.78;;
76290;SDS011;65100;46.884;17.410;2023-06-14T11:50:05;8.90;;;4.60;;
76290;SDS011;65100;46.884;17.410;2023-06-14T11:52:33;9.35;;;4.53;;
76290;SDS011;65100;46.884;17.410;2023-06-14T11:54:59;9.43;;;4.90;;
76290;SDS011;65100;46.884;17.410;2023-06-14T11:57:25;9.20;;;4.77;;
76290;SDS011;65100;46.884;17.410;2023-06-14T11:59:51;8.40;;;4.90;;
76290;SDS011;65100;46.884;17.410;2023-06-14T12:02:17;8.57;;;4.70;;
76290;SDS011;65100;46.884;17.410;2023-06-14T12:04:46;10.00;;;4.95;;
76290;SDS011;65100;46.884;17.410;2023-06-14T12:07:16;8.82;;;4.85;;
76290;SDS011;65100;46.884;17.410;2023-06-14T12:12:20;9.40;;;4.90;;
76290;SDS011;65100;46.884;17.410;2023-06-14T12:14:46;9.30;;;5.20;;
76290;SDS011;65100;46.884;17.410;2023-06-14T12:17:12;10.02;;;5.10;;
76290;SDS011;65100;46.884;17.410;2023-06-14T12:19:41;10.27;;;5.03;;
76290;SDS011;65100;46.884;17.410;2023-06-14T12:22:09;10.80;;;5.63;;
76290;SDS011;65100;46.884;17.410;2023-06-14T12:24:35;11.38;;;4.85;;
76290;SDS011;65100;46.884;17.410;2023-06-14T12:27:00;11.00;;;5.43;;
76290;SDS011;65100;46.884;17.410;2023-06-14T12:29:28;11.50;;;6.20;;
76290;SDS011;65100;46.884;17.410;2023-06-14T12:31:54;11.00;;;5.18;;
76290;SDS011;65100;46.884;17.410;2023-06-14T12:34:22;10.87;;;5.40;;
76290;SDS011;65100;46.884;17.410;2023-06-14T12:36:52;9.60;;;5.63;;
76290;SDS011;65100;46.884;17.410;2023-06-14T12:39:18;11.40;;;5.25;;
76290;SDS011;65100;46.884;17.410;2023-06-14T12:41:44;9.10;;;5.15;;
76290;SDS011;65100;46.884;17.410;2023-06-14T12:44:11;8.97;;;5.20;;
76290;SDS011;65100;46.884;17.410;2023-06-14T12:46:37;10.00;;;5.32;;
76290;SDS011;65100;46.884;17.410;2023-06-14T12:49:04;9.32;;;5.60;;
76290;SDS011;65100;46.884;17.410;2023-06-14T12:51:30;9.75;;;5.35;;
76290;SDS011;65100;46.884;17.410;2023-06-14T12:53:56;10.30;;;5.63;;
76290;SDS011;65100;46.884;17.410;2023-06-14T12:56:21;10.93;;;5.57;;
76290;SDS011;65100;46.884;17.410;2023-06-14T12:58:47;9.93;;;5.60;;
76290;SDS011;65100;46.884;17.410;2023-06-14T13:01:12;9.30;;;5.27;;
76290;SDS011;65100;46.884;17.410;2023-06-14T13:03:38;11.50;;;5.50;;
76290;SDS011;65100;46.884;17.410;2023-06-14T13:06:03;9.33;;;5.50;;
76290;SDS011;65100;46.884;17.410;2023-06-14T13:08:29;10.32;;;5.80;;
76290;SDS011;65100;46.884;17.410;2023-06-14T13:10:55;10.43;;;5.93;;
76290;SDS011;65100;46.884;17.410;2023-06-14T13:13:21;11.77;;;6.53;;
76290;SDS011;65100;46.884;17.410;2023-06-14T13:15:46;11.50;;;6.18;;
76290;SDS011;65100;46.884;17.410;2023-06-14T13:18:12;10.40;;;6.10;;
76290;SDS011;65100;46.884;17.410;2023-06-14T13:20:40;9.40;;;5.60;;
76290;SDS011;65100;46.884;17.410;2023-06-14T13:23:27;9.80;;;5.50;;
76290;SDS011;65100;46.884;17.410;2023-06-14T13:25:53;10.98;;;5.80;;
76290;SDS011;65100;46.884;17.410;2023-06-14T13:28:18;9.87;;;5.23;;
76290;SDS011;65100;46.884;17.410;2023-06-14T13:30:45;9.40;;;5.13;;
76290;SDS011;65100;46.884;17.410;2023-06-14T13:33:11;9.07;;;5.00;;
76290;SDS011;65100;46.884;17.410;2023-06-14T13:35:36;8.98;;;5.32;;
76290;SDS011;65100;46.884;17.410;2023-06-14T13:38:02;8.73;;;4.73;;
76290;SDS011;65100;46.884;17.410;2023-06-14T13:40:27;10.13;;;4.90;;
76290;SDS011;65100;46.884;17.410;2023-06-14T13:42:53;9.23;;;5.17;;
76290;SDS011;65100;46.884;17.410;2023-06-14T13:45:18;10.55;;;5.00;;
76290;SDS011;65100;46.884;17.410;2023-06-14T13:47:44;8.23;;;4.60;;
76290;SDS011;65100;46.884;17.410;2023-06-14T13:50:13;8.20;;;4.82;;
76290;SDS011;65100;46.884;17.410;2023-06-14T13:52:39;8.97;;;4.80;;
76290;SDS011;65100;46.884;17.410;2023-06-14T13:55:04;8.43;;;4.73;;
76290;SDS011;65100;46.884;17.410;2023-06-14T13:57:30;8.17;;;4.50;;
76290;SDS011;65100;46.884;17.410;2023-06-14T13:59:55;9.27;;;5.10;;
76290;SDS011;65100;46.884;17.410;2023-06-14T14:02:26;7.97;;;4.10;;
76290;SDS011;65100;46.884;17.410;2023-06-14T14:04:52;9.18;;;4.70;;
76290;SDS011;65100;46.884;17.410;2023-06-14T14:07:18;13.95;;;7.70;;
76290;SDS011;65100;46.884;17.410;2023-06-14T14:09:45;7.80;;;4.50;;
76290;SDS011;65100;46.884;17.410;2023-06-14T14:12:11;8.73;;;4.40;;
76290;SDS011;65100;46.884;17.410;2023-06-14T14:14:36;7.80;;;4.20;;
76290;SDS011;65100;46.884;17.410;2023-06-14T14:17:02;11.67;;;7.20;;
76290;SDS011;65100;46.884;17.410;2023-06-14T14:19:27;7.97;;;4.50;;
76290;SDS011;65100;46.884;17.410;2023-06-14T14:21:53;11.70;;;5.57;;
76290;SDS011;65100;46.884;17.410;2023-06-14T14:24:18;9.93;;;5.33;;
76290;SDS011;65100;46.884;17.410;2023-06-14T14:26:44;7.40;;;4.10;;
76290;SDS011;65100;46.884;17.410;2023-06-14T14:29:12;8.00;;;4.10;;
76290;SDS011;65100;46.884;17.410;2023-06-14T14:31:38;7.82;;;4.30;;
76290;SDS011;65100;46.884;17.410;2023-06-14T14:34:03;7.70;;;3.80;;
76290;SDS011;65100;46.884;17.410;2023-06-14T14:36:29;8.27;;;4.00;;
76290;SDS011;65100;46.884;17.410;2023-06-14T14:38:55;7.40;;;3.90;;
76290;SDS011;65100;46.884;17.410;2023-06-14T14:41:20;7.43;;;3.83;;
76290;SDS011;65100;46.884;17.410;2023-06-14T14:43:46;7.77;;;4.17;;
76290;SDS011;65100;46.884;17.410;2023-06-14T14:46:11;8.30;;;4.10;;
76290;SDS011;65100;46.884;17.410;2023-06-14T14:48:36;7.50;;;3.90;;
76290;SDS011;65100;46.884;17.410;2023-06-14T14:51:02;8.57;;;4.10;;
76290;SDS011;65100;46.884;17.410;2023-06-14T14:53:28;6.90;;;3.40;;
76290;SDS011;65100;46.884;17.410;2023-06-14T14:55:53;7.00;;;3.80;;
76290;SDS011;65100;46.884;17.410;2023-06-14T14:58:19;8.20;;;3.70;;